Leviticus — WDC2712 — position and weather

sailwx.info

Track history (hours):
 
Tides and Currents Weather Stations Pressure Air Temp Water Temp Dewpoint Dewpoint Depression Visibility Wind Speed Wind Dir Waves Ship Positions

Leviticus

Owner: Kirby Inland Marine, LP, Houston, TX. More information available from US FCC via Universal Licensing System and Coast Guard Vessel Documentation Center.

Last reported at 2017-Mar-14 23:27 UTC. Time now 2017-Mar-28 04:24 UTC.
Position N 32°36' W 091°08'.
Warning: this ship's position is 13 days out of date.

Length 320 m; draft 2.9 m.

Type: . MMSI: 366996690.

Date/timePositionNaut miles runAvg speedWind from/ knotsBaromVisibWave heightAir tempDewpointWater temp
2017-Mar-14 23:27N 32°36' W 091°08'8 4.3
2017-Mar-14 21:32N 32°28' W 091°06'5 4.7
2017-Mar-14 20:34N 32°26' W 091°01'4 4.2
2017-Mar-14 19:34N 32°21' W 091°00'3 3.3
2017-Mar-14 18:34N 32°21' W 090°56'3 3.0
2017-Mar-14 17:34N 32°18' W 090°55'0 0.1
2017-Mar-14 16:34N 32°18' W 090°55'0 0.0
2017-Mar-14 15:34N 32°18' W 090°55'0 0.0
2017-Mar-14 14:34N 32°18' W 090°55'0 0.1
2017-Mar-14 13:34N 32°18' W 090°55'4 4.2
2017-Mar-14 12:34N 32°15' W 090°59'5 5.4
2017-Mar-14 11:33N 32°10' W 091°00'5 4.2
2017-Mar-14 10:15N 32°08' W 091°06'  
2017-Mar-07 00:33N 32°07' W 091°07'6 6.4
2017-Mar-06 23:33N 32°10' W 091°00'8 8.3
2017-Mar-06 22:33N 32°18' W 090°56'4 4.5
2017-Mar-06 21:34N 32°21' W 090°59'7 6.9
2017-Mar-06 20:34N 32°27' W 091°04'8 7.7
2017-Mar-06 19:34N 32°34' W 091°06'  
Track history (hours):
 
Tides and Currents Weather Stations Pressure Air Temp Water Temp Dewpoint Dewpoint Depression Visibility Wind Speed Wind Dir Waves Ship Positions

Leviticus

Owner: Kirby Inland Marine, LP, Houston, TX. More information available from US FCC via Universal Licensing System and Coast Guard Vessel Documentation Center.

Last reported at 2017-Mar-14 23:27 UTC. Time now 2017-Mar-28 04:24 UTC.
Position N 32°36' W 091°08'.
Warning: this ship's position is 13 days out of date.

Length 320 m; draft 2.9 m.

Type: . MMSI: 366996690.

Date/timePositionNaut miles runAvg speedWind from/ knotsBaromVisibWave heightAir tempDewpointWater temp
2017-Mar-14 23:27N 32°36' W 091°08'8 4.3
2017-Mar-14 21:32N 32°28' W 091°06'5 4.7
2017-Mar-14 20:34N 32°26' W 091°01'4 4.2
2017-Mar-14 19:34N 32°21' W 091°00'3 3.3
2017-Mar-14 18:34N 32°21' W 090°56'3 3.0
2017-Mar-14 17:34N 32°18' W 090°55'0 0.1
2017-Mar-14 16:34N 32°18' W 090°55'0 0.0
2017-Mar-14 15:34N 32°18' W 090°55'0 0.0
2017-Mar-14 14:34N 32°18' W 090°55'0 0.1
2017-Mar-14 13:34N 32°18' W 090°55'4 4.2
2017-Mar-14 12:34N 32°15' W 090°59'5 5.4
2017-Mar-14 11:33N 32°10' W 091°00'5 4.2
2017-Mar-14 10:15N 32°08' W 091°06'  
2017-Mar-07 00:33N 32°07' W 091°07'6 6.4
2017-Mar-06 23:33N 32°10' W 091°00'8 8.3
2017-Mar-06 22:33N 32°18' W 090°56'4 4.5
2017-Mar-06 21:34N 32°21' W 090°59'7 6.9
2017-Mar-06 20:34N 32°27' W 091°04'8 7.7
2017-Mar-06 19:34N 32°34' W 091°06'  

Dump ship's entire track history